Time;durP1;ratioP1;P1;durP2;ratioP2;P2;SDS_P1;SDS_P2;PMS_P1;PMS_P2;Temp;Humidity;BMP_temperature;BMP_pressure;BME280_temperature;BME280_humidity;BME280_pressure;Samples;Min_cycle;Max_cycle;Signal;HPM_P1;HPM_P2
2020/12/12 00:01:43;;;;;;;17.42;7.88;;;8.00;77.60;;;;;;5094269;28;20036;-68
2020/12/12 00:04:09;;;;;;;23.90;11.55;;;8.10;77.60;;;;;;5094281;28;20024;-68
2020/12/12 00:06:34;;;;;;;24.67;10.70;;;8.00;77.20;;;;;;5093286;28;20040;-68
2020/12/12 00:09:00;;;;;;;17.70;9.05;;;8.00;76.80;;;;;;5094242;28;20107;-68
2020/12/12 00:11:25;;;;;;;13.07;6.03;;;8.10;77.00;;;;;;5094198;28;20161;-68
2020/12/12 00:13:51;;;;;;;19.02;9.60;;;8.00;76.90;;;;;;5093567;28;20020;-68
2020/12/12 00:16:17;;;;;;;40.85;8.63;;;8.10;77.10;;;;;;5094180;28;20085;-68
2020/12/12 00:18:44;;;;;;;22.75;10.40;;;8.00;77.10;;;;;;5093304;28;20036;-68
2020/12/12 00:21:14;;;;;;;19.23;8.88;;;8.00;76.90;;;;;;5093521;28;20434;-68
2020/12/12 00:23:40;;;;;;;23.33;10.82;;;8.00;76.80;;;;;;5092631;28;20111;-68
2020/12/12 00:26:06;;;;;;;23.63;10.30;;;8.10;76.90;;;;;;5093321;28;20032;-68
2020/12/12 00:28:33;;;;;;;19.73;8.48;;;8.10;77.10;;;;;;5094023;28;20118;-68
2020/12/12 00:30:59;;;;;;;20.23;8.60;;;8.00;77.00;;;;;;5093660;28;20092;-68
2020/12/12 00:33:25;;;;;;;20.85;10.95;;;8.00;77.00;;;;;;5092972;28;20028;-68
2020/12/12 00:35:51;;;;;;;21.55;11.18;;;8.10;76.90;;;;;;5093656;28;20502;-68
2020/12/12 00:38:17;;;;;;;16.50;7.35;;;8.00;76.70;;;;;;5093219;28;20364;-68
2020/12/12 00:40:42;;;;;;;17.60;7.63;;;8.10;76.90;;;;;;5092988;28;20036;-68
2020/12/12 00:43:08;;;;;;;20.67;9.95;;;8.10;77.50;;;;;;5093826;28;20031;-68
2020/12/12 00:45:34;;;;;;;25.00;10.05;;;8.10;76.90;;;;;;5093681;28;20028;-68
2020/12/12 00:47:59;;;;;;;19.13;9.57;;;8.10;76.90;;;;;;5091609;28;20024;-68
2020/12/12 00:50:25;;;;;;;21.80;10.77;;;8.10;76.80;;;;;;5092219;28;20035;-68
2020/12/12 00:52:51;;;;;;;14.20;6.68;;;8.10;76.80;;;;;;5093437;28;20486;-68
2020/12/12 00:55:17;;;;;;;18.05;8.98;;;8.10;76.80;;;;;;5093051;28;20101;-68
2020/12/12 00:57:45;;;;;;;20.25;10.10;;;8.10;77.00;;;;;;5092179;28;20024;-68
2020/12/12 01:00:11;;;;;;;19.63;9.43;;;8.10;76.70;;;;;;5093429;28;20028;-68
2020/12/12 01:02:37;;;;;;;20.48;8.45;;;8.10;76.80;;;;;;5093214;28;20038;-68
2020/12/12 01:05:04;;;;;;;14.40;7.32;;;8.10;76.90;;;;;;5093289;28;20035;-68
2020/12/12 01:07:29;;;;;;;16.73;8.07;;;8.10;77.00;;;;;;5093560;28;20032;-68
2020/12/12 01:09:55;;;;;;;18.50;8.35;;;8.10;77.20;;;;;;5092810;28;20118;-68
2020/12/12 01:12:21;;;;;;;17.23;6.88;;;8.10;77.90;;;;;;5093391;28;20370;-68
2020/12/12 01:14:47;;;;;;;21.05;10.27;;;8.10;77.40;;;;;;5092808;28;20040;-68
2020/12/12 01:17:13;;;;;;;9.95;4.25;;;8.10;77.60;;;;;;5093469;28;20032;-68
2020/12/12 01:19:39;;;;;;;20.42;10.05;;;8.10;77.60;;;;;;5093109;28;20502;-68
2020/12/12 01:22:04;;;;;;;19.13;8.68;;;8.10;77.40;;;;;;5092306;28;20051;-68
2020/12/12 01:24:30;;;;;;;22.50;11.10;;;8.10;77.20;;;;;;5093345;28;20020;-68
2020/12/12 01:26:56;;;;;;;11.93;5.57;;;8.10;77.00;;;;;;5093275;28;20375;-68
2020/12/12 01:29:21;;;;;;;19.95;9.55;;;8.10;77.40;;;;;;5092468;28;20027;-68
2020/12/12 01:31:48;;;;;;;16.85;6.40;;;8.10;77.30;;;;;;5093246;28;20039;-68
2020/12/12 01:34:14;;;;;;;20.20;10.15;;;8.00;77.70;;;;;;5093052;28;20122;-68
2020/12/12 01:36:40;;;;;;;24.10;11.38;;;8.10;77.60;;;;;;5092448;28;20062;-68
2020/12/12 01:39:06;;;;;;;9.25;4.43;;;8.10;77.40;;;;;;5092998;28;20062;-68
2020/12/12 01:41:31;;;;;;;22.45;10.52;;;8.10;77.70;;;;;;5093145;28;20044;-68
2020/12/12 01:43:57;;;;;;;23.67;10.88;;;8.00;77.60;;;;;;5092325;28;20035;-68
2020/12/12 01:46:26;;;;;;;17.83;8.90;;;8.10;77.40;;;;;;5093021;28;20043;-68
2020/12/12 01:48:53;;;;;;;19.77;6.95;;;8.10;77.40;;;;;;5092902;28;20132;-68
2020/12/12 01:51:21;;;;;;;18.02;6.82;;;8.10;77.80;;;;;;5095776;28;20055;-68
2020/12/12 01:53:52;;;;;;;19.92;9.77;;;8.10;77.80;;;;;;5096751;28;20027;-68
2020/12/12 01:56:18;;;;;;;21.42;9.32;;;8.10;77.60;;;;;;5096691;28;20082;-68
2020/12/12 01:58:44;;;;;;;22.00;9.55;;;8.00;77.40;;;;;;5095825;28;20023;-68
2020/12/12 02:01:12;;;;;;;15.23;8.15;;;8.10;77.60;;;;;;5096315;28;20036;-68
2020/12/12 02:03:43;;;;;;;24.60;10.13;;;8.00;77.30;;;;;;5096744;28;20031;-68
2020/12/12 02:06:13;;;;;;;18.85;9.45;;;8.10;77.30;;;;;;5095967;28;20115;-68
2020/12/12 02:08:39;;;;;;;16.67;9.02;;;8.10;77.20;;;;;;5096568;28;20036;-68
2020/12/12 02:11:09;;;;;;;20.05;9.95;;;8.10;77.10;;;;;;5094499;28;20537;-68
2020/12/12 02:13:35;;;;;;;22.80;10.25;;;8.10;76.90;;;;;;5096165;28;20040;-68
2020/12/12 02:16:01;;;;;;;20.40;9.90;;;8.00;76.90;;;;;;5096626;28;20036;-68
2020/12/12 02:18:26;;;;;;;16.42;8.52;;;8.10;77.00;;;;;;5095620;28;20024;-68
2020/12/12 02:20:53;;;;;;;18.63;7.93;;;8.10;77.00;;;;;;5095827;28;20055;-68
2020/12/12 02:23:20;;;;;;;4.70;3.08;;;8.00;77.10;;;;;;5096353;28;20395;-68
2020/12/12 02:25:46;;;;;;;11.70;5.00;;;8.10;77.50;;;;;;5095365;28;20042;-68
2020/12/12 02:28:15;;;;;;;19.65;10.98;;;8.00;77.30;;;;;;5095918;28;20028;-68
2020/12/12 02:30:40;;;;;;;22.40;11.43;;;8.00;77.20;;;;;;5096203;28;20428;-68
2020/12/12 02:33:06;;;;;;;16.48;7.75;;;8.00;76.90;;;;;;5095466;28;20029;-68
2020/12/12 02:35:32;;;;;;;18.05;8.32;;;8.00;77.20;;;;;;5096113;28;20032;-68
2020/12/12 02:37:57;;;;;;;18.73;7.82;;;8.00;76.90;;;;;;5095974;28;20024;-68
2020/12/12 02:40:23;;;;;;;18.25;8.93;;;8.00;77.20;;;;;;5095059;28;20455;-68
2020/12/12 02:42:49;;;;;;;15.18;7.47;;;8.00;77.00;;;;;;5095568;28;20115;-68
2020/12/12 02:45:15;;;;;;;19.45;9.48;;;8.00;77.00;;;;;;5095834;28;20051;-68
2020/12/12 02:47:43;;;;;;;20.08;9.73;;;7.90;77.00;;;;;;5095133;28;20034;-68
2020/12/12 02:50:11;;;;;;;20.60;9.75;;;8.00;77.30;;;;;;5095744;28;20032;-68
2020/12/12 02:52:38;;;;;;;17.33;8.23;;;7.90;76.90;;;;;;5095757;28;20024;-68
2020/12/12 02:55:05;;;;;;;20.00;8.45;;;8.00;77.00;;;;;;5094816;28;20107;-68
2020/12/12 02:57:32;;;;;;;15.85;7.50;;;7.90;76.90;;;;;;5095310;28;20058;-68
2020/12/12 02:59:58;;;;;;;17.08;8.77;;;8.00;76.80;;;;;;5095374;28;20548;-69
2020/12/12 03:02:24;;;;;;;13.07;6.53;;;7.90;76.80;;;;;;5094144;28;20036;-68
2020/12/12 03:04:49;;;;;;;20.08;8.45;;;7.90;77.10;;;;;;5095354;28;20055;-68
2020/12/12 03:07:15;;;;;;;23.00;8.23;;;7.90;77.20;;;;;;5095459;28;20055;-68
2020/12/12 03:09:41;;;;;;;18.48;9.60;;;7.90;77.30;;;;;;5094644;28;20035;-68
2020/12/12 03:12:06;;;;;;;17.40;7.40;;;7.90;77.10;;;;;;5095367;28;20121;-68
2020/12/12 03:14:32;;;;;;;14.75;7.80;;;7.90;77.20;;;;;;5094308;28;20036;-68
2020/12/12 03:16:58;;;;;;;13.90;5.80;;;7.90;77.20;;;;;;5095221;28;20123;-68
2020/12/12 03:19:23;;;;;;;15.82;8.88;;;7.90;77.40;;;;;;5095278;28;20028;-68
2020/12/12 03:21:49;;;;;;;14.77;6.50;;;7.90;77.30;;;;;;5093954;28;20411;-68
2020/12/12 03:24:21;;;;;;;15.63;8.00;;;7.90;77.60;;;;;;5094977;28;20081;-68
2020/12/12 03:26:47;;;;;;;17.20;7.55;;;7.90;77.70;;;;;;5095100;28;20422;-68
2020/12/12 03:29:15;;;;;;;13.20;6.32;;;7.90;77.70;;;;;;5094314;28;20123;-68
2020/12/12 03:31:41;;;;;;;16.50;7.72;;;7.80;77.80;;;;;;5094806;28;20067;-68
2020/12/12 03:34:06;;;;;;;16.17;8.27;;;7.80;77.80;;;;;;5094889;28;20069;-68
2020/12/12 03:36:32;;;;;;;14.50;6.85;;;7.80;77.80;;;;;;5094054;28;20028;-68
2020/12/12 03:38:58;;;;;;;20.40;7.72;;;7.80;77.80;;;;;;5094525;28;20372;-68
2020/12/12 03:41:23;;;;;;;15.32;7.25;;;7.90;78.10;;;;;;5094772;28;20066;-68
2020/12/12 03:43:49;;;;;;;21.77;8.63;;;7.80;77.90;;;;;;5093895;28;20032;-68
2020/12/12 03:46:14;;;;;;;20.33;9.07;;;7.80;77.60;;;;;;5095267;28;20032;-68
2020/12/12 03:48:41;;;;;;;17.05;7.35;;;7.80;77.60;;;;;;5094637;28;20028;-68
2020/12/12 03:51:08;;;;;;;19.45;9.75;;;7.80;78.10;;;;;;5093722;28;20024;-68
2020/12/12 03:53:33;;;;;;;15.52;7.28;;;7.80;77.40;;;;;;5094391;28;20036;-68
2020/12/12 03:55:59;;;;;;;19.55;10.15;;;7.80;77.40;;;;;;5094490;28;20028;-68
2020/12/12 03:58:25;;;;;;;13.07;6.72;;;7.80;77.20;;;;;;5093876;28;20475;-68
2020/12/12 04:00:50;;;;;;;21.38;8.82;;;7.80;77.40;;;;;;5094482;28;20379;-68
2020/12/12 04:03:16;;;;;;;20.40;10.48;;;7.80;77.60;;;;;;5094228;28;20020;-68
2020/12/12 04:05:44;;;;;;;15.80;7.50;;;7.80;77.50;;;;;;5093509;28;20130;-68
2020/12/12 04:08:11;;;;;;;18.30;7.93;;;7.80;77.60;;;;;;5094107;28;20024;-68
2020/12/12 04:10:37;;;;;;;20.20;9.75;;;7.80;77.70;;;;;;5093688;28;20024;-68
2020/12/12 04:13:02;;;;;;;17.33;9.32;;;7.80;77.50;;;;;;5093410;28;20383;-68
2020/12/12 04:15:28;;;;;;;20.98;9.02;;;7.80;77.30;;;;;;5093891;28;20036;-68
2020/12/12 04:17:54;;;;;;;20.98;9.02;;;7.80;77.20;;;;;;5093157;28;20028;-68
2020/12/12 04:20:19;;;;;;;16.65;7.50;;;7.80;77.50;;;;;;5093823;28;20052;-68
2020/12/12 04:22:45;;;;;;;19.27;9.35;;;7.80;77.80;;;;;;5093977;28;20036;-68
2020/12/12 04:25:11;;;;;;;22.92;10.90;;;7.80;77.70;;;;;;5093395;28;20032;-68
2020/12/12 04:27:36;;;;;;;17.17;7.65;;;7.80;77.80;;;;;;5093696;28;20382;-68
2020/12/12 04:30:03;;;;;;;14.82;7.05;;;7.80;77.70;;;;;;5093874;28;20028;-68
2020/12/12 04:32:29;;;;;;;11.93;6.10;;;7.80;77.90;;;;;;5093204;28;20031;-68
2020/12/12 04:34:55;;;;;;;15.73;7.85;;;7.80;77.90;;;;;;5093921;28;20024;-68
2020/12/12 04:37:21;;;;;;;19.08;8.07;;;7.80;78.00;;;;;;5093728;28;20024;-68
2020/12/12 04:39:47;;;;;;;11.85;6.30;;;7.80;77.80;;;;;;5093073;28;20024;-68
2020/12/12 04:42:15;;;;;;;19.35;9.27;;;7.80;78.00;;;;;;5093852;28;20024;-68
2020/12/12 04:44:42;;;;;;;18.48;9.30;;;7.80;77.80;;;;;;5093969;28;20118;-68
2020/12/12 04:47:09;;;;;;;16.73;8.38;;;7.80;78.00;;;;;;5092960;28;20077;-68
2020/12/12 04:49:34;;;;;;;11.30;4.78;;;7.70;78.20;;;;;;5093555;28;20028;-68
2020/12/12 04:52:05;;;;;;;19.95;9.20;;;7.80;78.40;;;;;;5093540;28;20093;-68
2020/12/12 04:54:33;;;;;;;14.00;6.45;;;7.80;78.20;;;;;;5092870;28;20028;-68
2020/12/12 04:57:03;;;;;;;20.52;10.13;;;7.80;78.30;;;;;;5093745;28;20032;-68
2020/12/12 04:59:33;;;;;;;21.63;7.50;;;7.80;77.80;;;;;;5093527;28;20061;-68
2020/12/12 05:02:01;;;;;;;13.43;6.28;;;7.70;77.90;;;;;;5092923;28;20411;-68
2020/12/12 05:04:27;;;;;;;12.20;5.88;;;7.70;77.90;;;;;;5093315;28;20024;-68
2020/12/12 05:06:53;;;;;;;17.10;9.07;;;7.80;77.90;;;;;;5093006;28;20028;-68
2020/12/12 05:09:19;;;;;;;12.65;5.57;;;7.70;77.90;;;;;;5093318;28;20478;-68
2020/12/12 05:11:48;;;;;;;17.50;8.00;;;7.70;77.80;;;;;;5093551;28;20035;-68
2020/12/12 05:14:15;;;;;;;7.93;3.17;;;7.70;78.00;;;;;;5092792;28;20020;-68
2020/12/12 05:16:43;;;;;;;20.70;8.55;;;7.70;78.30;;;;;;5093191;28;20364;-75
2020/12/12 05:19:09;;;;;;;18.38;9.43;;;7.70;78.20;;;;;;5093183;28;20434;-68
2020/12/12 05:21:44;;;;;;;20.98;8.00;;;7.80;78.20;;;;;;5092339;28;20072;-68
2020/12/12 05:24:10;;;;;;;14.68;7.22;;;7.80;78.50;;;;;;5093378;28;20077;-68
2020/12/12 05:26:37;;;;;;;16.42;5.43;;;7.70;78.40;;;;;;5097086;28;20036;-68
2020/12/12 05:29:04;;;;;;;22.67;11.20;;;7.80;78.60;;;;;;5096528;28;20028;-68
2020/12/12 05:31:30;;;;;;;19.00;9.55;;;7.70;78.30;;;;;;5097256;28;20099;-68
2020/12/12 05:33:56;;;;;;;17.75;9.45;;;7.80;78.40;;;;;;5097237;28;20031;-68
2020/12/12 05:36:27;;;;;;;15.57;6.85;;;7.80;78.30;;;;;;5096548;28;20085;-68
2020/12/12 05:38:58;;;;;;;12.65;6.35;;;7.70;78.20;;;;;;5097047;28;20464;-68
2020/12/12 05:41:27;;;;;;;16.50;7.85;;;7.70;78.20;;;;;;5097065;28;20101;-68
2020/12/12 05:43:54;;;;;;;16.98;8.75;;;7.70;78.30;;;;;;5096164;28;20053;-68
2020/12/12 05:46:24;;;;;;;16.80;7.43;;;7.70;78.30;;;;;;5096695;28;20043;-68
2020/12/12 05:48:53;;;;;;;10.68;5.70;;;7.70;78.20;;;;;;5097230;28;20028;-68
2020/12/12 05:51:21;;;;;;;23.50;9.88;;;7.70;78.30;;;;;;5095907;28;20601;-68
2020/12/12 05:53:48;;;;;;;18.52;9.02;;;7.70;78.80;;;;;;5096811;28;20028;-68
2020/12/12 05:56:14;;;;;;;19.98;9.75;;;7.70;78.10;;;;;;5096051;28;20430;-68
2020/12/12 05:58:43;;;;;;;21.73;9.70;;;7.70;78.00;;;;;;5096476;28;20060;-68
2020/12/12 06:01:16;;;;;;;21.10;8.68;;;7.70;77.90;;;;;;5096465;28;20383;-68
2020/12/12 06:04:08;;;;;;;20.33;10.30;;;7.70;78.00;;;;;;5095755;28;20376;-68
2020/12/12 06:06:43;;;;;;;21.90;10.75;;;7.70;77.80;;;;;;5096545;28;20040;-68
2020/12/12 06:09:10;;;;;;;26.10;12.57;;;7.70;78.00;;;;;;5096349;28;20024;-68
2020/12/12 06:11:41;;;;;;;17.70;8.65;;;7.70;78.00;;;;;;5095931;28;20380;-68
2020/12/12 06:14:07;;;;;;;25.00;12.38;;;7.70;77.80;;;;;;5096484;28;20035;-68
2020/12/12 06:16:35;;;;;;;22.88;11.98;;;7.70;77.90;;;;;;5096373;28;20506;-68
2020/12/12 06:19:16;;;;;;;22.60;11.23;;;7.70;77.60;;;;;;5095646;28;20032;-68
2020/12/12 06:21:44;;;;;;;23.23;10.98;;;7.70;77.60;;;;;;5095969;28;20479;-68
2020/12/12 06:24:12;;;;;;;13.77;6.50;;;7.70;77.80;;;;;;5096235;28;20032;-68
2020/12/12 06:26:59;;;;;;;16.40;7.82;;;7.70;77.70;;;;;;5095883;28;20052;-68
2020/12/12 06:29:26;;;;;;;21.73;10.82;;;7.70;77.80;;;;;;5096081;28;20028;-68
2020/12/12 06:31:53;;;;;;;22.23;10.75;;;7.60;77.70;;;;;;5095493;28;20020;-68
2020/12/12 06:34:39;;;;;;;12.05;5.10;;;7.70;77.70;;;;;;5096090;28;20032;-68
2020/12/12 06:37:05;;;;;;;17.95;8.25;;;7.70;77.90;;;;;;5094968;28;20032;-68
2020/12/12 06:39:31;;;;;;;14.10;6.35;;;7.70;78.00;;;;;;5095201;28;20028;-67
2020/12/12 06:41:58;;;;;;;22.38;10.05;;;7.60;77.90;;;;;;5096065;28;20036;-68
2020/12/12 06:44:36;;;;;;;20.20;10.90;;;7.70;77.80;;;;;;5094361;28;20089;-68
2020/12/12 06:47:03;;;;;;;18.65;7.95;;;7.70;77.60;;;;;;5095212;28;20035;-68
2020/12/12 06:49:28;;;;;;;22.27;11.65;;;7.70;77.60;;;;;;5095794;28;20028;-68
2020/12/12 06:51:54;;;;;;;22.38;10.43;;;7.70;77.60;;;;;;5095677;28;20446;-68
2020/12/12 06:54:21;;;;;;;15.40;7.55;;;7.70;77.50;;;;;;5094972;28;20511;-68
2020/12/12 06:56:47;;;;;;;22.92;10.55;;;7.70;77.60;;;;;;5095630;28;20024;-68
2020/12/12 06:59:27;;;;;;;25.45;12.52;;;7.70;77.50;;;;;;5095302;28;20392;-68
2020/12/12 07:01:54;;;;;;;21.02;9.75;;;7.70;77.50;;;;;;5094060;28;20471;-68
2020/12/12 07:04:25;;;;;;;24.25;9.82;;;7.70;77.40;;;;;;5095579;28;20036;-68
2020/12/12 07:07:17;;;;;;;18.90;9.65;;;7.70;77.50;;;;;;5094636;28;20387;-68
2020/12/12 07:09:43;;;;;;;20.17;9.57;;;7.70;77.90;;;;;;5091639;28;20109;-68
2020/12/12 07:12:10;;;;;;;22.77;10.32;;;7.70;78.00;;;;;;5095348;28;20479;-68
2020/12/12 07:14:37;;;;;;;24.10;9.80;;;7.70;77.90;;;;;;5094635;28;20032;-68
2020/12/12 07:17:04;;;;;;;25.23;10.68;;;7.60;77.80;;;;;;5095277;28;20035;-68
2020/12/12 07:19:38;;;;;;;22.35;10.57;;;7.70;77.90;;;;;;5095115;28;20048;-68
2020/12/12 07:22:07;;;;;;;25.83;11.85;;;7.70;77.80;;;;;;5094078;28;20089;-70
2020/12/12 07:24:33;;;;;;;27.75;12.73;;;7.70;77.80;;;;;;5095048;28;20169;-68
2020/12/12 07:26:59;;;;;;;12.68;6.22;;;7.70;77.70;;;;;;5095002;28;20028;-68
2020/12/12 07:29:26;;;;;;;21.05;8.77;;;7.70;77.90;;;;;;5094170;28;20416;-68
2020/12/12 07:31:52;;;;;;;22.02;10.70;;;7.70;78.00;;;;;;5094825;28;20035;-68
2020/12/12 07:34:22;;;;;;;20.92;9.80;;;7.70;78.00;;;;;;5095165;28;20085;-68
2020/12/12 07:37:02;;;;;;;23.45;9.98;;;7.70;78.00;;;;;;5093954;28;20495;-68
2020/12/12 07:39:34;;;;;;;30.08;14.38;;;7.70;78.00;;;;;;5094762;28;20032;-68
2020/12/12 07:42:01;;;;;;;13.27;7.00;;;7.70;77.90;;;;;;5093975;28;20487;-68
2020/12/12 07:44:33;;;;;;;18.52;8.18;;;7.70;78.00;;;;;;5094693;28;20043;-68
2020/12/12 07:47:07;;;;;;;20.30;10.15;;;7.70;78.00;;;;;;5094543;28;20035;-68
2020/12/12 07:49:35;;;;;;;24.90;11.60;;;7.80;78.00;;;;;;5093815;28;20028;-68
2020/12/12 07:52:08;;;;;;;28.70;11.30;;;7.70;77.80;;;;;;5094483;28;20356;-68
2020/12/12 07:54:54;;;;;;;23.45;11.93;;;7.70;77.80;;;;;;5094588;28;20032;-68
2020/12/12 07:57:19;;;;;;;23.55;11.68;;;7.70;77.60;;;;;;5093546;28;20103;-68
2020/12/12 07:59:48;;;;;;;27.08;12.80;;;7.80;77.50;;;;;;5094411;28;20597;-67
2020/12/12 08:02:14;;;;;;;23.35;11.13;;;7.80;77.50;;;;;;5094111;28;20043;-68
2020/12/12 08:04:40;;;;;;;25.70;11.32;;;7.80;77.50;;;;;;5093682;28;20024;-67
2020/12/12 08:07:10;;;;;;;22.25;10.85;;;7.80;77.40;;;;;;5094442;28;20523;-68
2020/12/12 08:09:36;;;;;;;25.05;11.75;;;7.80;77.60;;;;;;5094013;28;20028;-69
2020/12/12 08:12:03;;;;;;;24.83;11.00;;;7.80;77.40;;;;;;5093286;28;20056;-69
2020/12/12 08:14:31;;;;;;;24.17;12.02;;;7.80;77.50;;;;;;5094018;28;20429;-72
2020/12/12 08:16:59;;;;;;;23.45;10.77;;;7.80;77.40;;;;;;5093328;28;20038;-68
2020/12/12 08:19:26;;;;;;;21.10;10.57;;;7.80;77.40;;;;;;5094114;28;20032;-69
2020/12/12 08:22:07;;;;;;;25.58;12.82;;;7.80;77.50;;;;;;5093484;28;20138;-70
2020/12/12 08:24:33;;;;;;;31.20;11.40;;;7.80;77.40;;;;;;5093104;28;20070;-69
2020/12/12 08:26:58;;;;;;;27.95;14.38;;;7.80;77.60;;;;;;5093735;28;20467;-76
2020/12/12 08:29:24;;;;;;;16.48;8.00;;;7.80;77.50;;;;;;5093937;28;20035;-76
2020/12/12 08:31:50;;;;;;;28.00;13.52;;;7.80;77.50;;;;;;5092907;28;20118;-77
2020/12/12 08:34:19;;;;;;;32.00;13.68;;;7.80;77.50;;;;;;5093663;28;20074;-76
2020/12/12 08:36:45;;;;;;;24.80;11.27;;;7.80;77.40;;;;;;5093623;28;20356;-74
2020/12/12 08:39:11;;;;;;;23.75;12.38;;;7.80;77.50;;;;;;5092824;28;20471;-68
2020/12/12 08:41:38;;;;;;;32.55;14.82;;;7.80;77.50;;;;;;5093717;28;20070;-68
2020/12/12 08:44:05;;;;;;;27.27;12.45;;;7.80;77.60;;;;;;5092667;28;20467;-69
2020/12/12 08:46:31;;;;;;;15.57;7.50;;;7.80;77.60;;;;;;5089446;28;20111;-69
2020/12/12 08:48:57;;;;;;;16.58;6.13;;;7.80;77.80;;;;;;5092234;28;20490;-69
2020/12/12 08:51:24;;;;;;;29.75;11.45;;;7.80;77.80;;;;;;5093336;28;20036;-69
2020/12/12 08:53:50;;;;;;;27.23;10.38;;;7.80;77.90;;;;;;5092885;28;20123;-68
2020/12/12 08:56:22;;;;;;;35.22;14.07;;;7.80;77.80;;;;;;5093573;28;20114;-68
2020/12/12 08:59:05;;;;;;;34.08;13.88;;;7.80;77.80;;;;;;5092553;28;20028;-68
2020/12/12 09:01:34;;;;;;;30.58;11.20;;;7.80;77.80;;;;;;5093955;28;20104;-67
2020/12/12 09:04:05;;;;;;;33.85;13.60;;;7.90;77.80;;;;;;5096366;28;20029;-68
2020/12/12 09:06:46;;;;;;;29.35;12.23;;;7.80;77.80;;;;;;5093675;28;20028;-68
2020/12/12 09:09:18;;;;;;;30.48;13.65;;;7.80;77.80;;;;;;5094109;28;20463;-68
2020/12/12 09:11:55;;;;;;;34.78;14.43;;;7.80;77.70;;;;;;5095931;28;20524;-68
2020/12/12 09:14:22;;;;;;;32.97;14.73;;;7.90;77.60;;;;;;5095196;28;20410;-68
2020/12/12 09:16:56;;;;;;;24.00;11.70;;;7.80;77.60;;;;;;5096365;28;20471;-68
2020/12/12 09:19:23;;;;;;;29.13;12.20;;;7.80;77.60;;;;;;5097520;28;20032;-66
2020/12/12 09:21:48;;;;;;;27.13;11.20;;;7.90;77.60;;;;;;5096381;28;20048;-66
2020/12/12 09:24:15;;;;;;;34.50;14.82;;;7.80;77.60;;;;;;5097282;28;20028;-66
2020/12/12 09:26:41;;;;;;;20.30;8.48;;;7.90;77.60;;;;;;5097251;28;20036;-66
2020/12/12 09:29:07;;;;;;;16.20;6.85;;;7.80;77.60;;;;;;5096292;28;20032;-69
2020/12/12 09:31:33;;;;;;;28.85;12.75;;;7.80;77.80;;;;;;5097074;28;20027;-70
2020/12/12 09:33:59;;;;;;;12.82;5.60;;;7.90;78.00;;;;;;5097294;28;20028;-70
2020/12/12 09:36:25;;;;;;;25.70;12.35;;;7.90;78.00;;;;;;5096330;28;20115;-69
2020/12/12 09:38:51;;;;;;;31.10;15.10;;;7.90;78.10;;;;;;5097127;28;20475;-69
2020/12/12 09:41:17;;;;;;;30.52;14.35;;;7.90;78.00;;;;;;5095077;28;20063;-68
2020/12/12 09:43:43;;;;;;;35.17;13.60;;;7.90;77.90;;;;;;5096944;28;20544;-68
2020/12/12 09:46:09;;;;;;;25.85;11.15;;;7.90;77.90;;;;;;5097051;28;20075;-72
2020/12/12 09:48:36;;;;;;;31.83;14.18;;;7.90;78.00;;;;;;5095965;28;20472;-67
2020/12/12 09:51:03;;;;;;;25.23;10.27;;;7.90;78.00;;;;;;5096954;28;20035;-67
2020/12/12 09:53:29;;;;;;;28.70;12.05;;;7.90;78.00;;;;;;5096826;28;20024;-66
2020/12/12 09:55:56;;;;;;;22.15;10.27;;;7.90;78.10;;;;;;5096047;28;20024;-65
2020/12/12 09:58:23;;;;;;;25.20;10.88;;;7.90;78.10;;;;;;5096939;28;20023;-67
2020/12/12 10:00:48;;;;;;;34.63;13.65;;;7.90;78.20;;;;;;5096248;28;20044;-74
2020/12/12 10:03:14;;;;;;;28.23;12.77;;;7.90;78.30;;;;;;5095601;28;20020;-67
2020/12/12 10:05:40;;;;;;;27.08;13.23;;;7.90;78.40;;;;;;5096641;28;20440;-66
2020/12/12 10:08:05;;;;;;;18.52;7.97;;;7.90;78.40;;;;;;5095830;28;20039;-66
2020/12/12 10:10:33;;;;;;;25.73;11.57;;;7.90;78.50;;;;;;5094619;28;20061;-67
2020/12/12 10:12:59;;;;;;;20.38;10.00;;;7.90;78.50;;;;;;5096250;28;20032;-67
2020/12/12 10:15:26;;;;;;;25.52;11.38;;;8.00;78.50;;;;;;5095500;28;20024;-68
2020/12/12 10:17:54;;;;;;;41.60;17.40;;;7.90;78.60;;;;;;5094139;28;20158;-67
2020/12/12 10:20:21;;;;;;;23.40;9.02;;;8.00;79.10;;;;;;5094006;28;20040;-68
2020/12/12 10:22:48;;;;;;;37.45;15.18;;;8.00;78.60;;;;;;5094784;28;20032;-68
2020/12/12 10:25:14;;;;;;;28.92;13.60;;;8.00;78.60;;;;;;5093819;28;20479;-68
2020/12/12 10:27:40;;;;;;;31.23;13.73;;;8.00;78.60;;;;;;5094661;28;20035;-67
2020/12/12 10:30:10;;;;;;;38.78;16.75;;;8.00;78.50;;;;;;5094785;28;20085;-69
2020/12/12 10:32:36;;;;;;;24.55;10.35;;;8.00;78.40;;;;;;5091275;28;20034;-69
2020/12/12 10:35:04;;;;;;;33.13;11.60;;;8.10;78.70;;;;;;5094605;28;20434;-68
2020/12/12 10:37:30;;;;;;;43.80;18.45;;;8.10;78.60;;;;;;5093559;28;20031;-69
2020/12/12 10:40:05;;;;;;;34.30;13.57;;;8.10;78.40;;;;;;5094178;28;20032;-69
2020/12/12 10:42:31;;;;;;;35.70;17.05;;;8.10;78.40;;;;;;5094563;28;20085;-69
2020/12/12 10:44:57;;;;;;;32.40;14.60;;;8.10;78.40;;;;;;5091189;28;20440;-68
2020/12/12 10:47:22;;;;;;;34.33;15.48;;;8.10;78.30;;;;;;5094368;28;20051;-69
2020/12/12 10:49:48;;;;;;;41.15;16.15;;;8.10;78.40;;;;;;5094496;28;20429;-65
2020/12/12 10:52:14;;;;;;;36.47;16.05;;;8.10;78.30;;;;;;5095202;28;20081;-67
2020/12/12 10:54:44;;;;;;;26.40;12.85;;;8.10;78.20;;;;;;5095525;28;20032;-66
2020/12/12 10:57:10;;;;;;;31.58;13.77;;;8.10;78.20;;;;;;5095661;28;20077;-66
2020/12/12 10:59:35;;;;;;;34.42;15.43;;;8.10;78.30;;;;;;5095216;28;20028;-66
2020/12/12 11:02:01;;;;;;;34.88;14.35;;;8.20;78.30;;;;;;5095332;28;20059;-66
2020/12/12 11:04:26;;;;;;;28.67;11.60;;;8.20;78.30;;;;;;5095283;28;20039;-66
2020/12/12 11:06:52;;;;;;;34.45;15.02;;;8.20;78.40;;;;;;5094485;28;20032;-65
2020/12/12 11:09:18;;;;;;;28.50;11.00;;;8.20;79.00;;;;;;5095110;28;20028;-64
2020/12/12 11:11:44;;;;;;;30.88;14.20;;;8.20;78.40;;;;;;5095350;28;20134;-64
2020/12/12 11:14:11;;;;;;;28.60;13.45;;;8.20;79.00;;;;;;5094281;28;20039;-67
2020/12/12 11:16:37;;;;;;;31.35;13.50;;;8.20;78.40;;;;;;5095023;28;20028;-65
2020/12/12 11:19:04;;;;;;;28.85;13.63;;;8.20;78.40;;;;;;5094821;28;20391;-65
2020/12/12 11:21:30;;;;;;;30.02;13.60;;;8.20;78.50;;;;;;5093946;28;20407;-66
2020/12/12 11:23:56;;;;;;;29.15;13.48;;;8.20;78.50;;;;;;5094606;28;20028;-74
2020/12/12 11:26:22;;;;;;;28.80;12.93;;;8.20;78.50;;;;;;5095056;28;20422;-66
2020/12/12 11:28:47;;;;;;;30.05;13.75;;;8.20;78.50;;;;;;5090000;28;20029;-66
2020/12/12 11:31:22;;;;;;;28.02;13.95;;;8.20;78.60;;;;;;5094597;28;20108;-66
2020/12/12 11:33:58;;;;;;;35.05;14.05;;;8.20;78.60;;;;;;5102909;28;20073;-67
2020/12/12 11:39:14;;;;;;;;;;;8.30;78.60;;;;;;5093192;28;20581;-66
2020/12/12 11:42:00;;;;;;;30.85;10.65;;;8.30;78.60;;;;;;5090721;28;19916;-68
2020/12/12 11:47:01;;;;;;;30.92;15.18;;;8.30;78.60;;;;;;5094148;28;20028;-72
2020/12/12 11:49:26;;;;;;;29.67;14.50;;;8.20;78.50;;;;;;5093480;28;20463;-70
2020/12/12 11:51:52;;;;;;;31.05;14.13;;;8.30;78.70;;;;;;5093180;28;20026;-69
2020/12/12 11:54:18;;;;;;;31.35;14.15;;;8.30;78.60;;;;;;5092931;28;20020;-71
2020/12/12 11:56:43;;;;;;;30.27;12.25;;;8.30;78.70;;;;;;5092155;28;20031;-71
2020/12/12 11:59:12;;;;;;;29.45;14.27;;;8.30;78.70;;;;;;5092740;28;20073;-70
2020/12/12 12:01:37;;;;;;;24.63;12.23;;;8.30;78.70;;;;;;5093036;28;20043;-72
2020/12/12 12:04:03;;;;;;;28.00;13.75;;;8.30;78.60;;;;;;5091895;28;20379;-71
2020/12/12 12:06:29;;;;;;;33.78;15.10;;;8.30;78.60;;;;;;5092645;28;20101;-71
2020/12/12 12:14:01;;;;;;;28.55;12.75;;;8.40;78.60;;;;;;5092760;28;20040;-73
2020/12/12 12:16:27;;;;;;;30.95;16.48;;;8.40;78.60;;;;;;5089606;28;20089;-73
2020/12/12 12:18:54;;;;;;;27.63;15.00;;;8.40;78.60;;;;;;5092397;28;20468;-73
2020/12/12 12:21:21;;;;;;;28.98;13.70;;;8.40;78.60;;;;;;5092249;28;20369;-71
2020/12/12 12:23:46;;;;;;;27.90;13.23;;;8.40;78.50;;;;;;5089229;28;20074;-66
2020/12/12 12:26:15;;;;;;;29.20;13.07;;;8.50;78.60;;;;;;5092931;28;20379;-74
2020/12/12 12:28:41;;;;;;;39.03;16.40;;;8.50;78.60;;;;;;5092594;28;20032;-72
2020/12/12 12:31:07;;;;;;;36.85;15.43;;;8.50;78.60;;;;;;5091594;28;20107;-69
2020/12/12 12:33:32;;;;;;;28.85;15.07;;;8.50;78.60;;;;;;5092138;28;20103;-69
2020/12/12 12:35:58;;;;;;;31.08;13.93;;;8.50;78.60;;;;;;5091414;28;20040;-74
2020/12/12 12:38:24;;;;;;;28.33;13.25;;;8.50;78.60;;;;;;5091492;28;20065;-75
2020/12/12 12:40:49;;;;;;;25.15;12.32;;;8.50;78.60;;;;;;5091944;28;20052;-72
2020/12/12 12:43:15;;;;;;;31.30;16.58;;;8.50;78.70;;;;;;5091625;28;20246;-73
2020/12/12 12:45:41;;;;;;;32.17;15.63;;;8.50;78.70;;;;;;5091945;28;20111;-72
2020/12/12 12:48:07;;;;;;;33.25;15.90;;;8.50;79.40;;;;;;5092122;28;20024;-72
2020/12/12 12:50:39;;;;;;;30.77;15.48;;;8.50;78.70;;;;;;5092244;28;20490;-73
2020/12/12 12:53:08;;;;;;;;;;;8.50;78.70;;;;;;5089590;28;20106;-73
2020/12/12 12:55:34;;;;;;;31.65;15.23;;;8.50;78.60;;;;;;5092308;28;19915;-71